sensor_id;sensor_type;location;lat;lon;timestamp;P1;durP1;ratioP1;P2;durP2;ratioP2
78224;SDS011;67498;53.650;10.090;2023-06-22T00:01:19;4.95;;;1.30;;
78224;SDS011;67498;53.650;10.090;2023-06-22T00:04:03;5.45;;;1.45;;
78224;SDS011;67498;53.650;10.090;2023-06-22T00:06:34;6.10;;;1.50;;
78224;SDS011;67498;53.650;10.090;2023-06-22T00:09:04;4.47;;;1.30;;
78224;SDS011;67498;53.650;10.090;2023-06-22T00:11:31;4.15;;;1.15;;
78224;SDS011;67498;53.650;10.090;2023-06-22T00:13:59;4.68;;;1.63;;
78224;SDS011;67498;53.650;10.090;2023-06-22T00:16:31;4.82;;;1.27;;
78224;SDS011;67498;53.650;10.090;2023-06-22T00:18:57;4.10;;;1.30;;
78224;SDS011;67498;53.650;10.090;2023-06-22T00:21:27;3.90;;;1.27;;
78224;SDS011;67498;53.650;10.090;2023-06-22T00:23:58;4.65;;;1.52;;
78224;SDS011;67498;53.650;10.090;2023-06-22T00:26:27;6.97;;;1.25;;
78224;SDS011;67498;53.650;10.090;2023-06-22T00:28:52;5.10;;;1.53;;
78224;SDS011;67498;53.650;10.090;2023-06-22T00:31:18;4.00;;;1.38;;
78224;SDS011;67498;53.650;10.090;2023-06-22T00:33:45;4.13;;;1.40;;
78224;SDS011;67498;53.650;10.090;2023-06-22T00:36:13;5.53;;;1.73;;
78224;SDS011;67498;53.650;10.090;2023-06-22T00:38:41;7.82;;;1.70;;
78224;SDS011;67498;53.650;10.090;2023-06-22T00:41:09;4.27;;;1.27;;
78224;SDS011;67498;53.650;10.090;2023-06-22T00:43:37;4.57;;;1.37;;
78224;SDS011;67498;53.650;10.090;2023-06-22T00:46:02;4.03;;;1.40;;
78224;SDS011;67498;53.650;10.090;2023-06-22T00:48:28;4.65;;;1.48;;
78224;SDS011;67498;53.650;10.090;2023-06-22T00:50:53;6.23;;;1.67;;
78224;SDS011;67498;53.650;10.090;2023-06-22T00:53:20;5.05;;;1.60;;
78224;SDS011;67498;53.650;10.090;2023-06-22T00:55:46;3.80;;;1.17;;
78224;SDS011;67498;53.650;10.090;2023-06-22T00:58:16;4.07;;;1.20;;
78224;SDS011;67498;53.650;10.090;2023-06-22T01:00:46;4.88;;;1.40;;
78224;SDS011;67498;53.650;10.090;2023-06-22T01:03:12;5.93;;;1.67;;
78224;SDS011;67498;53.650;10.090;2023-06-22T01:05:41;4.32;;;1.20;;
78224;SDS011;67498;53.650;10.090;2023-06-22T01:11:04;4.70;;;1.40;;
78224;SDS011;67498;53.650;10.090;2023-06-22T01:13:33;4.50;;;1.20;;
78224;SDS011;67498;53.650;10.090;2023-06-22T01:16:05;5.30;;;1.30;;
78224;SDS011;67498;53.650;10.090;2023-06-22T01:18:35;5.63;;;1.45;;
78224;SDS011;67498;53.650;10.090;2023-06-22T01:21:03;4.32;;;1.45;;
78224;SDS011;67498;53.650;10.090;2023-06-22T01:23:43;4.97;;;1.75;;
78224;SDS011;67498;53.650;10.090;2023-06-22T01:26:14;5.47;;;1.93;;
78224;SDS011;67498;53.650;10.090;2023-06-22T01:28:48;4.82;;;1.48;;
78224;SDS011;67498;53.650;10.090;2023-06-22T01:31:19;4.95;;;1.60;;
78224;SDS011;67498;53.650;10.090;2023-06-22T01:33:48;4.43;;;1.30;;
78224;SDS011;67498;53.650;10.090;2023-06-22T01:36:17;4.10;;;1.27;;
78224;SDS011;67498;53.650;10.090;2023-06-22T01:38:44;4.93;;;1.40;;
78224;SDS011;67498;53.650;10.090;2023-06-22T01:41:11;4.47;;;1.60;;
78224;SDS011;67498;53.650;10.090;2023-06-22T01:43:37;4.72;;;1.40;;
78224;SDS011;67498;53.650;10.090;2023-06-22T01:46:03;4.63;;;1.35;;
78224;SDS011;67498;53.650;10.090;2023-06-22T01:48:32;4.10;;;1.17;;
78224;SDS011;67498;53.650;10.090;2023-06-22T01:50:58;5.22;;;1.25;;
78224;SDS011;67498;53.650;10.090;2023-06-22T01:53:24;6.45;;;1.42;;
78224;SDS011;67498;53.650;10.090;2023-06-22T01:55:49;5.18;;;1.30;;
78224;SDS011;67498;53.650;10.090;2023-06-22T01:58:17;4.90;;;1.80;;
78224;SDS011;67498;53.650;10.090;2023-06-22T02:00:48;5.22;;;1.42;;
78224;SDS011;67498;53.650;10.090;2023-06-22T02:03:19;5.13;;;1.50;;
78224;SDS011;67498;53.650;10.090;2023-06-22T02:06:07;6.88;;;1.70;;
78224;SDS011;67498;53.650;10.090;2023-06-22T02:08:39;4.50;;;1.20;;
78224;SDS011;67498;53.650;10.090;2023-06-22T02:11:07;4.17;;;1.30;;
78224;SDS011;67498;53.650;10.090;2023-06-22T02:13:35;4.50;;;1.48;;
78224;SDS011;67498;53.650;10.090;2023-06-22T02:16:05;4.25;;;1.50;;
78224;SDS011;67498;53.650;10.090;2023-06-22T02:18:30;6.00;;;1.60;;
78224;SDS011;67498;53.650;10.090;2023-06-22T02:20:56;4.60;;;1.53;;
78224;SDS011;67498;53.650;10.090;2023-06-22T02:23:24;8.20;;;1.30;;
78224;SDS011;67498;53.650;10.090;2023-06-22T02:25:49;6.90;;;1.80;;
78224;SDS011;67498;53.650;10.090;2023-06-22T02:28:19;5.43;;;1.52;;
78224;SDS011;67498;53.650;10.090;2023-06-22T02:30:47;8.45;;;1.83;;
78224;SDS011;67498;53.650;10.090;2023-06-22T02:33:18;5.35;;;1.77;;
78224;SDS011;67498;53.650;10.090;2023-06-22T02:35:44;4.57;;;1.48;;
78224;SDS011;67498;53.650;10.090;2023-06-22T02:38:12;4.67;;;1.67;;
78224;SDS011;67498;53.650;10.090;2023-06-22T02:40:39;4.43;;;1.50;;
78224;SDS011;67498;53.650;10.090;2023-06-22T02:43:04;4.53;;;1.37;;
78224;SDS011;67498;53.650;10.090;2023-06-22T02:45:30;7.33;;;1.80;;
78224;SDS011;67498;53.650;10.090;2023-06-22T02:47:55;5.82;;;1.52;;
78224;SDS011;67498;53.650;10.090;2023-06-22T02:50:23;6.20;;;1.53;;
78224;SDS011;67498;53.650;10.090;2023-06-22T02:52:51;5.57;;;1.42;;
78224;SDS011;67498;53.650;10.090;2023-06-22T02:55:17;5.57;;;1.60;;
78224;SDS011;67498;53.650;10.090;2023-06-22T02:57:43;6.77;;;1.60;;
78224;SDS011;67498;53.650;10.090;2023-06-22T03:00:09;7.75;;;1.67;;
78224;SDS011;67498;53.650;10.090;2023-06-22T03:02:43;5.07;;;1.67;;
78224;SDS011;67498;53.650;10.090;2023-06-22T03:05:09;6.28;;;2.10;;
78224;SDS011;67498;53.650;10.090;2023-06-22T03:07:38;5.20;;;1.80;;
78224;SDS011;67498;53.650;10.090;2023-06-22T03:10:07;6.65;;;2.40;;
78224;SDS011;67498;53.650;10.090;2023-06-22T03:12:39;4.93;;;1.70;;
78224;SDS011;67498;53.650;10.090;2023-06-22T03:15:09;5.90;;;1.77;;
78224;SDS011;67498;53.650;10.090;2023-06-22T03:17:38;5.70;;;1.92;;
78224;SDS011;67498;53.650;10.090;2023-06-22T03:20:14;5.40;;;2.00;;
78224;SDS011;67498;53.650;10.090;2023-06-22T03:22:39;5.18;;;2.00;;
78224;SDS011;67498;53.650;10.090;2023-06-22T03:25:08;9.00;;;2.10;;
78224;SDS011;67498;53.650;10.090;2023-06-22T03:27:42;7.68;;;2.00;;
78224;SDS011;67498;53.650;10.090;2023-06-22T03:30:11;5.93;;;2.05;;
78224;SDS011;67498;53.650;10.090;2023-06-22T03:32:40;6.97;;;2.10;;
78224;SDS011;67498;53.650;10.090;2023-06-22T03:35:05;9.02;;;2.33;;
78224;SDS011;67498;53.650;10.090;2023-06-22T03:37:33;6.20;;;2.20;;
78224;SDS011;67498;53.650;10.090;2023-06-22T03:39:59;7.85;;;2.85;;
78224;SDS011;67498;53.650;10.090;2023-06-22T03:42:25;8.50;;;2.13;;
78224;SDS011;67498;53.650;10.090;2023-06-22T03:44:51;6.28;;;2.05;;
78224;SDS011;67498;53.650;10.090;2023-06-22T03:47:16;8.27;;;2.27;;
78224;SDS011;67498;53.650;10.090;2023-06-22T03:49:42;5.80;;;2.33;;
78224;SDS011;67498;53.650;10.090;2023-06-22T03:52:07;6.17;;;2.30;;
78224;SDS011;67498;53.650;10.090;2023-06-22T03:54:33;7.68;;;2.30;;
78224;SDS011;67498;53.650;10.090;2023-06-22T03:56:58;7.13;;;2.07;;
78224;SDS011;67498;53.650;10.090;2023-06-22T03:59:24;6.73;;;2.30;;
78224;SDS011;67498;53.650;10.090;2023-06-22T04:01:50;6.55;;;2.30;;
78224;SDS011;67498;53.650;10.090;2023-06-22T04:04:17;8.77;;;2.53;;
78224;SDS011;67498;53.650;10.090;2023-06-22T04:06:43;6.55;;;2.40;;
78224;SDS011;67498;53.650;10.090;2023-06-22T04:09:09;6.40;;;2.38;;
78224;SDS011;67498;53.650;10.090;2023-06-22T04:11:34;5.27;;;1.90;;
78224;SDS011;67498;53.650;10.090;2023-06-22T04:14:00;6.40;;;2.15;;
78224;SDS011;67498;53.650;10.090;2023-06-22T04:16:26;8.27;;;2.72;;
78224;SDS011;67498;53.650;10.090;2023-06-22T04:18:51;6.97;;;2.83;;
78224;SDS011;67498;53.650;10.090;2023-06-22T04:21:17;6.20;;;2.30;;
78224;SDS011;67498;53.650;10.090;2023-06-22T04:23:44;7.72;;;2.90;;
78224;SDS011;67498;53.650;10.090;2023-06-22T04:26:10;6.35;;;2.25;;
78224;SDS011;67498;53.650;10.090;2023-06-22T04:28:36;7.27;;;2.67;;
78224;SDS011;67498;53.650;10.090;2023-06-22T04:31:02;6.53;;;2.70;;
78224;SDS011;67498;53.650;10.090;2023-06-22T04:33:27;6.68;;;2.53;;
78224;SDS011;67498;53.650;10.090;2023-06-22T04:35:56;6.47;;;2.15;;
78224;SDS011;67498;53.650;10.090;2023-06-22T04:38:22;7.17;;;2.50;;
78224;SDS011;67498;53.650;10.090;2023-06-22T04:40:49;9.13;;;2.50;;
78224;SDS011;67498;53.650;10.090;2023-06-22T04:43:14;7.22;;;2.55;;
78224;SDS011;67498;53.650;10.090;2023-06-22T04:45:40;5.83;;;2.20;;
78224;SDS011;67498;53.650;10.090;2023-06-22T04:48:06;7.93;;;2.17;;
78224;SDS011;67498;53.650;10.090;2023-06-22T04:50:31;6.07;;;1.93;;
78224;SDS011;67498;53.650;10.090;2023-06-22T04:52:56;7.77;;;3.00;;
78224;SDS011;67498;53.650;10.090;2023-06-22T04:55:22;7.13;;;2.73;;
78224;SDS011;67498;53.650;10.090;2023-06-22T04:57:47;7.87;;;2.40;;
78224;SDS011;67498;53.650;10.090;2023-06-22T05:00:17;6.05;;;2.10;;
78224;SDS011;67498;53.650;10.090;2023-06-22T05:02:44;6.32;;;2.10;;
78224;SDS011;67498;53.650;10.090;2023-06-22T05:05:10;6.47;;;2.33;;
78224;SDS011;67498;53.650;10.090;2023-06-22T05:07:38;7.38;;;2.50;;
78224;SDS011;67498;53.650;10.090;2023-06-22T05:10:08;7.60;;;2.13;;
78224;SDS011;67498;53.650;10.090;2023-06-22T05:12:35;5.88;;;2.22;;
78224;SDS011;67498;53.650;10.090;2023-06-22T05:15:00;7.13;;;2.27;;
78224;SDS011;67498;53.650;10.090;2023-06-22T05:17:26;7.05;;;2.30;;
78224;SDS011;67498;53.650;10.090;2023-06-22T05:19:52;6.37;;;2.07;;
78224;SDS011;67498;53.650;10.090;2023-06-22T05:22:17;5.68;;;2.22;;
78224;SDS011;67498;53.650;10.090;2023-06-22T05:24:43;4.87;;;1.83;;
78224;SDS011;67498;53.650;10.090;2023-06-22T05:27:09;5.27;;;1.97;;
78224;SDS011;67498;53.650;10.090;2023-06-22T05:29:34;6.70;;;1.80;;
78224;SDS011;67498;53.650;10.090;2023-06-22T05:32:00;6.10;;;2.00;;
78224;SDS011;67498;53.650;10.090;2023-06-22T05:34:25;5.57;;;1.77;;
78224;SDS011;67498;53.650;10.090;2023-06-22T05:36:51;8.00;;;1.90;;
78224;SDS011;67498;53.650;10.090;2023-06-22T05:39:16;4.17;;;1.40;;
78224;SDS011;67498;53.650;10.090;2023-06-22T05:41:41;4.40;;;1.43;;
78224;SDS011;67498;53.650;10.090;2023-06-22T05:44:08;4.25;;;1.30;;
78224;SDS011;67498;53.650;10.090;2023-06-22T05:46:33;4.50;;;1.63;;
78224;SDS011;67498;53.650;10.090;2023-06-22T05:48:58;4.60;;;1.60;;
78224;SDS011;67498;53.650;10.090;2023-06-22T05:51:24;4.57;;;1.13;;
78224;SDS011;67498;53.650;10.090;2023-06-22T05:53:49;7.10;;;1.30;;
78224;SDS011;67498;53.650;10.090;2023-06-22T05:56:15;5.97;;;1.17;;
78224;SDS011;67498;53.650;10.090;2023-06-22T05:58:41;4.43;;;1.40;;
78224;SDS011;67498;53.650;10.090;2023-06-22T06:01:06;4.43;;;1.30;;
78224;SDS011;67498;53.650;10.090;2023-06-22T06:03:31;3.80;;;1.40;;
78224;SDS011;67498;53.650;10.090;2023-06-22T06:05:57;3.47;;;1.10;;
78224;SDS011;67498;53.650;10.090;2023-06-22T06:08:22;5.90;;;1.00;;
78224;SDS011;67498;53.650;10.090;2023-06-22T06:10:48;4.17;;;1.20;;
78224;SDS011;67498;53.650;10.090;2023-06-22T06:13:13;4.10;;;1.00;;
78224;SDS011;67498;53.650;10.090;2023-06-22T06:15:39;4.57;;;1.02;;
78224;SDS011;67498;53.650;10.090;2023-06-22T06:18:05;3.87;;;1.10;;
78224;SDS011;67498;53.650;10.090;2023-06-22T06:20:31;3.63;;;1.10;;
78224;SDS011;67498;53.650;10.090;2023-06-22T06:22:57;3.67;;;1.10;;
78224;SDS011;67498;53.650;10.090;2023-06-22T06:25:22;4.47;;;1.10;;
78224;SDS011;67498;53.650;10.090;2023-06-22T06:27:49;3.55;;;0.95;;
78224;SDS011;67498;53.650;10.090;2023-06-22T06:30:16;3.78;;;1.15;;
78224;SDS011;67498;53.650;10.090;2023-06-22T06:32:43;4.73;;;1.20;;
78224;SDS011;67498;53.650;10.090;2023-06-22T06:35:10;4.22;;;1.00;;
78224;SDS011;67498;53.650;10.090;2023-06-22T06:37:37;3.78;;;1.02;;
78224;SDS011;67498;53.650;10.090;2023-06-22T06:40:06;3.15;;;1.00;;
78224;SDS011;67498;53.650;10.090;2023-06-22T06:42:42;4.18;;;1.30;;
78224;SDS011;67498;53.650;10.090;2023-06-22T06:45:15;4.20;;;1.30;;
78224;SDS011;67498;53.650;10.090;2023-06-22T06:47:42;4.55;;;1.30;;
78224;SDS011;67498;53.650;10.090;2023-06-22T06:50:08;5.10;;;1.40;;
78224;SDS011;67498;53.650;10.090;2023-06-22T06:52:34;5.07;;;1.40;;
78224;SDS011;67498;53.650;10.090;2023-06-22T06:54:59;4.60;;;1.30;;
78224;SDS011;67498;53.650;10.090;2023-06-22T06:57:25;7.00;;;1.57;;
78224;SDS011;67498;53.650;10.090;2023-06-22T06:59:54;3.65;;;1.10;;
78224;SDS011;67498;53.650;10.090;2023-06-22T07:02:20;3.90;;;1.13;;
78224;SDS011;67498;53.650;10.090;2023-06-22T07:04:46;4.10;;;1.05;;
78224;SDS011;67498;53.650;10.090;2023-06-22T07:07:11;4.20;;;1.27;;
78224;SDS011;67498;53.650;10.090;2023-06-22T07:09:37;4.70;;;1.40;;
78224;SDS011;67498;53.650;10.090;2023-06-22T07:12:02;3.72;;;0.82;;
78224;SDS011;67498;53.650;10.090;2023-06-22T07:14:28;4.50;;;1.13;;
78224;SDS011;67498;53.650;10.090;2023-06-22T07:16:54;4.13;;;1.13;;
78224;SDS011;67498;53.650;10.090;2023-06-22T07:19:25;4.10;;;1.07;;
78224;SDS011;67498;53.650;10.090;2023-06-22T07:21:51;4.30;;;1.37;;
78224;SDS011;67498;53.650;10.090;2023-06-22T07:24:18;4.53;;;1.55;;
78224;SDS011;67498;53.650;10.090;2023-06-22T07:26:44;3.67;;;1.13;;
78224;SDS011;67498;53.650;10.090;2023-06-22T07:29:11;4.22;;;1.30;;
78224;SDS011;67498;53.650;10.090;2023-06-22T07:31:36;3.63;;;1.10;;
78224;SDS011;67498;53.650;10.090;2023-06-22T07:34:02;4.65;;;1.10;;
78224;SDS011;67498;53.650;10.090;2023-06-22T07:36:27;5.03;;;1.47;;
78224;SDS011;67498;53.650;10.090;2023-06-22T07:38:55;3.90;;;1.13;;
78224;SDS011;67498;53.650;10.090;2023-06-22T07:41:20;4.73;;;1.47;;
78224;SDS011;67498;53.650;10.090;2023-06-22T07:43:46;4.88;;;1.08;;
78224;SDS011;67498;53.650;10.090;2023-06-22T07:46:11;4.40;;;1.27;;
78224;SDS011;67498;53.650;10.090;2023-06-22T07:48:37;5.30;;;1.20;;
78224;SDS011;67498;53.650;10.090;2023-06-22T07:51:02;5.93;;;1.63;;
78224;SDS011;67498;53.650;10.090;2023-06-22T07:53:28;5.93;;;1.50;;
78224;SDS011;67498;53.650;10.090;2023-06-22T07:55:53;4.43;;;1.37;;
78224;SDS011;67498;53.650;10.090;2023-06-22T07:58:19;4.47;;;1.30;;
78224;SDS011;67498;53.650;10.090;2023-06-22T08:00:45;5.40;;;1.50;;
78224;SDS011;67498;53.650;10.090;2023-06-22T08:03:11;3.90;;;1.15;;
78224;SDS011;67498;53.650;10.090;2023-06-22T08:05:37;5.00;;;1.50;;
78224;SDS011;67498;53.650;10.090;2023-06-22T08:08:02;4.93;;;1.03;;
78224;SDS011;67498;53.650;10.090;2023-06-22T08:10:27;3.92;;;1.30;;
78224;SDS011;67498;53.650;10.090;2023-06-22T08:12:53;4.30;;;1.10;;
78224;SDS011;67498;53.650;10.090;2023-06-22T08:15:18;3.87;;;1.00;;
78224;SDS011;67498;53.650;10.090;2023-06-22T08:17:44;6.03;;;1.37;;
78224;SDS011;67498;53.650;10.090;2023-06-22T08:20:11;3.78;;;1.20;;
78224;SDS011;67498;53.650;10.090;2023-06-22T08:22:40;4.60;;;1.20;;
78224;SDS011;67498;53.650;10.090;2023-06-22T08:25:06;3.67;;;1.05;;
78224;SDS011;67498;53.650;10.090;2023-06-22T08:27:32;4.03;;;1.60;;
78224;SDS011;67498;53.650;10.090;2023-06-22T08:29:57;3.85;;;1.30;;
78224;SDS011;67498;53.650;10.090;2023-06-22T08:32:24;4.17;;;1.23;;
78224;SDS011;67498;53.650;10.090;2023-06-22T08:34:51;4.53;;;1.38;;
78224;SDS011;67498;53.650;10.090;2023-06-22T08:37:17;4.53;;;1.45;;
78224;SDS011;67498;53.650;10.090;2023-06-22T08:39:42;4.37;;;1.10;;
78224;SDS011;67498;53.650;10.090;2023-06-22T08:42:08;4.67;;;1.10;;
78224;SDS011;67498;53.650;10.090;2023-06-22T08:44:33;6.67;;;1.50;;
78224;SDS011;67498;53.650;10.090;2023-06-22T08:46:58;5.03;;;1.60;;
78224;SDS011;67498;53.650;10.090;2023-06-22T08:49:24;4.20;;;1.40;;
78224;SDS011;67498;53.650;10.090;2023-06-22T08:51:49;3.67;;;1.30;;
78224;SDS011;67498;53.650;10.090;2023-06-22T08:54:14;5.13;;;1.43;;
78224;SDS011;67498;53.650;10.090;2023-06-22T08:56:39;4.40;;;1.50;;
78224;SDS011;67498;53.650;10.090;2023-06-22T08:59:05;6.67;;;1.60;;
78224;SDS011;67498;53.650;10.090;2023-06-22T09:01:32;3.95;;;1.20;;
78224;SDS011;67498;53.650;10.090;2023-06-22T09:03:58;4.23;;;1.43;;
78224;SDS011;67498;53.650;10.090;2023-06-22T09:06:24;3.85;;;1.30;;
78224;SDS011;67498;53.650;10.090;2023-06-22T09:08:50;5.43;;;1.40;;
78224;SDS011;67498;53.650;10.090;2023-06-22T09:11:15;5.73;;;1.37;;
78224;SDS011;67498;53.650;10.090;2023-06-22T09:13:40;4.60;;;1.40;;
78224;SDS011;67498;53.650;10.090;2023-06-22T09:16:06;5.30;;;1.42;;
78224;SDS011;67498;53.650;10.090;2023-06-22T09:18:31;4.83;;;1.30;;
78224;SDS011;67498;53.650;10.090;2023-06-22T09:20:57;3.53;;;1.23;;
78224;SDS011;67498;53.650;10.090;2023-06-22T09:23:22;4.30;;;1.50;;
78224;SDS011;67498;53.650;10.090;2023-06-22T09:25:48;4.05;;;1.40;;
78224;SDS011;67498;53.650;10.090;2023-06-22T09:28:14;4.30;;;1.40;;
78224;SDS011;67498;53.650;10.090;2023-06-22T09:30:39;4.57;;;1.30;;
78224;SDS011;67498;53.650;10.090;2023-06-22T09:33:05;5.47;;;1.60;;
78224;SDS011;67498;53.650;10.090;2023-06-22T09:35:30;7.70;;;1.40;;
78224;SDS011;67498;53.650;10.090;2023-06-22T09:37:55;4.50;;;1.40;;
78224;SDS011;67498;53.650;10.090;2023-06-22T09:40:20;4.27;;;1.53;;
78224;SDS011;67498;53.650;10.090;2023-06-22T09:42:46;5.03;;;1.63;;
78224;SDS011;67498;53.650;10.090;2023-06-22T09:45:11;3.92;;;1.48;;
78224;SDS011;67498;53.650;10.090;2023-06-22T09:47:36;3.93;;;1.17;;
78224;SDS011;67498;53.650;10.090;2023-06-22T09:50:02;4.40;;;1.57;;
78224;SDS011;67498;53.650;10.090;2023-06-22T09:52:28;8.43;;;2.00;;
78224;SDS011;67498;53.650;10.090;2023-06-22T09:54:53;6.90;;;1.58;;
78224;SDS011;67498;53.650;10.090;2023-06-22T09:57:18;5.70;;;1.70;;
78224;SDS011;67498;53.650;10.090;2023-06-22T09:59:43;5.17;;;1.50;;
78224;SDS011;67498;53.650;10.090;2023-06-22T10:02:09;5.27;;;2.00;;
78224;SDS011;67498;53.650;10.090;2023-06-22T10:04:34;5.37;;;1.67;;
78224;SDS011;67498;53.650;10.090;2023-06-22T10:07:00;4.53;;;1.63;;
78224;SDS011;67498;53.650;10.090;2023-06-22T10:09:26;4.38;;;1.52;;
78224;SDS011;67498;53.650;10.090;2023-06-22T10:11:51;3.93;;;1.43;;
78224;SDS011;67498;53.650;10.090;2023-06-22T10:14:17;4.00;;;1.43;;
78224;SDS011;67498;53.650;10.090;2023-06-22T10:16:42;3.63;;;1.40;;
78224;SDS011;67498;53.650;10.090;2023-06-22T10:19:07;4.10;;;1.50;;
78224;SDS011;67498;53.650;10.090;2023-06-22T10:21:33;5.03;;;1.63;;
78224;SDS011;67498;53.650;10.090;2023-06-22T10:23:59;4.03;;;1.30;;
78224;SDS011;67498;53.650;10.090;2023-06-22T10:26:27;8.07;;;1.42;;
78224;SDS011;67498;53.650;10.090;2023-06-22T10:28:54;5.30;;;1.55;;
78224;SDS011;67498;53.650;10.090;2023-06-22T10:31:19;5.30;;;1.70;;
78224;SDS011;67498;53.650;10.090;2023-06-22T10:33:44;5.10;;;1.60;;
78224;SDS011;67498;53.650;10.090;2023-06-22T10:36:10;6.60;;;1.70;;
78224;SDS011;67498;53.650;10.090;2023-06-22T10:38:36;5.00;;;1.60;;
78224;SDS011;67498;53.650;10.090;2023-06-22T10:41:01;4.87;;;1.83;;
78224;SDS011;67498;53.650;10.090;2023-06-22T10:43:27;4.20;;;1.65;;
78224;SDS011;67498;53.650;10.090;2023-06-22T10:45:52;4.90;;;1.47;;
78224;SDS011;67498;53.650;10.090;2023-06-22T10:48:18;4.90;;;1.53;;
78224;SDS011;67498;53.650;10.090;2023-06-22T10:50:43;4.90;;;1.90;;
78224;SDS011;67498;53.650;10.090;2023-06-22T10:53:08;4.40;;;1.60;;
78224;SDS011;67498;53.650;10.090;2023-06-22T10:55:33;5.80;;;1.80;;
78224;SDS011;67498;53.650;10.090;2023-06-22T10:57:59;5.37;;;1.70;;
78224;SDS011;67498;53.650;10.090;2023-06-22T11:00:24;6.10;;;1.50;;
78224;SDS011;67498;53.650;10.090;2023-06-22T11:02:49;6.60;;;1.70;;
78224;SDS011;67498;53.650;10.090;2023-06-22T11:05:14;4.57;;;1.50;;
78224;SDS011;67498;53.650;10.090;2023-06-22T11:07:43;4.57;;;1.77;;
78224;SDS011;67498;53.650;10.090;2023-06-22T11:10:09;4.10;;;1.70;;
78224;SDS011;67498;53.650;10.090;2023-06-22T11:12:35;4.07;;;1.60;;
78224;SDS011;67498;53.650;10.090;2023-06-22T11:15:00;6.17;;;1.77;;
78224;SDS011;67498;53.650;10.090;2023-06-22T11:17:26;5.47;;;2.10;;
78224;SDS011;67498;53.650;10.090;2023-06-22T11:19:51;4.27;;;1.73;;
78224;SDS011;67498;53.650;10.090;2023-06-22T11:22:16;4.07;;;1.57;;
78224;SDS011;67498;53.650;10.090;2023-06-22T11:24:42;5.13;;;2.00;;
78224;SDS011;67498;53.650;10.090;2023-06-22T11:27:07;5.67;;;1.73;;
78224;SDS011;67498;53.650;10.090;2023-06-22T11:29:32;5.17;;;1.87;;
78224;SDS011;67498;53.650;10.090;2023-06-22T11:31:58;4.83;;;1.90;;
78224;SDS011;67498;53.650;10.090;2023-06-22T11:34:23;7.00;;;1.80;;
78224;SDS011;67498;53.650;10.090;2023-06-22T11:36:48;5.73;;;1.90;;
78224;SDS011;67498;53.650;10.090;2023-06-22T11:39:13;4.50;;;1.73;;
78224;SDS011;67498;53.650;10.090;2023-06-22T11:41:40;4.50;;;1.58;;
78224;SDS011;67498;53.650;10.090;2023-06-22T11:44:05;5.75;;;1.80;;
78224;SDS011;67498;53.650;10.090;2023-06-22T11:46:30;5.67;;;2.23;;
78224;SDS011;67498;53.650;10.090;2023-06-22T11:48:57;4.67;;;2.00;;
78224;SDS011;67498;53.650;10.090;2023-06-22T11:51:22;4.73;;;1.87;;
78224;SDS011;67498;53.650;10.090;2023-06-22T11:53:48;6.27;;;3.40;;
78224;SDS011;67498;53.650;10.090;2023-06-22T11:56:13;4.83;;;1.80;;
78224;SDS011;67498;53.650;10.090;2023-06-22T11:58:38;4.50;;;1.90;;
78224;SDS011;67498;53.650;10.090;2023-06-22T12:01:03;5.13;;;1.70;;
78224;SDS011;67498;53.650;10.090;2023-06-22T12:03:29;5.75;;;2.00;;
78224;SDS011;67498;53.650;10.090;2023-06-22T12:05:55;5.13;;;2.20;;
78224;SDS011;67498;53.650;10.090;2023-06-22T12:08:20;4.63;;;2.07;;
78224;SDS011;67498;53.650;10.090;2023-06-22T12:10:46;6.05;;;2.20;;
78224;SDS011;67498;53.650;10.090;2023-06-22T12:13:14;4.63;;;2.13;;
78224;SDS011;67498;53.650;10.090;2023-06-22T12:15:40;4.90;;;2.10;;
78224;SDS011;67498;53.650;10.090;2023-06-22T12:18:05;7.37;;;2.13;;
78224;SDS011;67498;53.650;10.090;2023-06-22T12:20:30;5.37;;;2.10;;
78224;SDS011;67498;53.650;10.090;2023-06-22T12:22:57;4.83;;;2.13;;
78224;SDS011;67498;53.650;10.090;2023-06-22T12:25:23;7.27;;;2.00;;
78224;SDS011;67498;53.650;10.090;2023-06-22T12:27:49;5.72;;;2.38;;
78224;SDS011;67498;53.650;10.090;2023-06-22T12:30:15;5.53;;;2.20;;
78224;SDS011;67498;53.650;10.090;2023-06-22T12:32:41;5.78;;;2.30;;
78224;SDS011;67498;53.650;10.090;2023-06-22T12:35:06;5.87;;;2.20;;
78224;SDS011;67498;53.650;10.090;2023-06-22T12:37:36;5.53;;;2.15;;
78224;SDS011;67498;53.650;10.090;2023-06-22T12:40:02;8.00;;;2.10;;
78224;SDS011;67498;53.650;10.090;2023-06-22T12:42:28;7.65;;;2.30;;
78224;SDS011;67498;53.650;10.090;2023-06-22T12:44:54;4.67;;;2.10;;
78224;SDS011;67498;53.650;10.090;2023-06-22T12:47:19;5.20;;;2.27;;
78224;SDS011;67498;53.650;10.090;2023-06-22T12:49:45;4.80;;;2.20;;
78224;SDS011;67498;53.650;10.090;2023-06-22T12:52:10;6.10;;;2.53;;
78224;SDS011;67498;53.650;10.090;2023-06-22T12:54:36;4.90;;;2.28;;
78224;SDS011;67498;53.650;10.090;2023-06-22T12:57:01;9.40;;;2.50;;
78224;SDS011;67498;53.650;10.090;2023-06-22T12:59:26;8.00;;;2.20;;
78224;SDS011;67498;53.650;10.090;2023-06-22T13:01:52;5.13;;;2.07;;
78224;SDS011;67498;53.650;10.090;2023-06-22T13:04:17;5.07;;;2.30;;
78224;SDS011;67498;53.650;10.090;2023-06-22T13:06:44;5.90;;;2.60;;
78224;SDS011;67498;53.650;10.090;2023-06-22T13:09:13;6.72;;;2.30;;
78224;SDS011;67498;53.650;10.090;2023-06-22T13:11:39;7.63;;;2.22;;
78224;SDS011;67498;53.650;10.090;2023-06-22T13:14:04;5.47;;;2.63;;
78224;SDS011;67498;53.650;10.090;2023-06-22T13:16:29;5.80;;;2.40;;
78224;SDS011;67498;53.650;10.090;2023-06-22T13:18:55;5.30;;;2.30;;
78224;SDS011;67498;53.650;10.090;2023-06-22T13:21:20;7.93;;;2.57;;
78224;SDS011;67498;53.650;10.090;2023-06-22T13:23:45;7.30;;;2.90;;
78224;SDS011;67498;53.650;10.090;2023-06-22T13:26:10;5.10;;;2.50;;
78224;SDS011;67498;53.650;10.090;2023-06-22T13:28:36;7.27;;;2.10;;
78224;SDS011;67498;53.650;10.090;2023-06-22T13:31:01;5.03;;;2.27;;
78224;SDS011;67498;53.650;10.090;2023-06-22T13:33:26;4.87;;;2.23;;
78224;SDS011;67498;53.650;10.090;2023-06-22T13:35:51;5.53;;;2.30;;
78224;SDS011;67498;53.650;10.090;2023-06-22T13:38:17;5.50;;;2.53;;
78224;SDS011;67498;53.650;10.090;2023-06-22T13:40:42;5.17;;;2.10;;
78224;SDS011;67498;53.650;10.090;2023-06-22T13:43:08;4.67;;;2.00;;
78224;SDS011;67498;53.650;10.090;2023-06-22T13:45:33;5.70;;;2.37;;
78224;SDS011;67498;53.650;10.090;2023-06-22T13:47:58;5.17;;;2.10;;
78224;SDS011;67498;53.650;10.090;2023-06-22T13:50:24;10.10;;;2.40;;
78224;SDS011;67498;53.650;10.090;2023-06-22T13:52:49;5.32;;;2.35;;
78224;SDS011;67498;53.650;10.090;2023-06-22T13:55:14;5.60;;;2.27;;
78224;SDS011;67498;53.650;10.090;2023-06-22T13:57:40;6.20;;;2.50;;
78224;SDS011;67498;53.650;10.090;2023-06-22T14:00:06;6.03;;;2.30;;
78224;SDS011;67498;53.650;10.090;2023-06-22T14:02:33;6.77;;;2.30;;
78224;SDS011;67498;53.650;10.090;2023-06-22T14:04:58;5.53;;;2.00;;
78224;SDS011;67498;53.650;10.090;2023-06-22T14:07:23;6.93;;;2.57;;
78224;SDS011;67498;53.650;10.090;2023-06-22T14:09:49;5.07;;;2.20;;
78224;SDS011;67498;53.650;10.090;2023-06-22T14:12:14;6.05;;;2.38;;
78224;SDS011;67498;53.650;10.090;2023-06-22T14:14:40;6.80;;;2.40;;
78224;SDS011;67498;53.650;10.090;2023-06-22T14:17:06;6.40;;;2.63;;
78224;SDS011;67498;53.650;10.090;2023-06-22T14:19:31;5.47;;;2.63;;
78224;SDS011;67498;53.650;10.090;2023-06-22T14:21:57;5.43;;;2.40;;
78224;SDS011;67498;53.650;10.090;2023-06-22T14:24:22;6.57;;;2.70;;
78224;SDS011;67498;53.650;10.090;2023-06-22T14:26:48;5.00;;;2.20;;
78224;SDS011;67498;53.650;10.090;2023-06-22T14:29:13;5.67;;;2.40;;
78224;SDS011;67498;53.650;10.090;2023-06-22T14:31:39;5.50;;;2.77;;